Yass Linton Hostel, New South Wales

4:58 AM AEDT on October 24, 2014 (GMT +1100)
Urban environment | Change Station
CLOSE
Current Station
Personal Weather Station
Location: Yass, NEW SOUTH WALES
Elevation: 1709 ft
Nearby Weather Stations

Elev 1709 ft 34.85 °S, 148.91 °E | Updated 0 second ago

Partly Cloudy
Partly Cloudy
56.5 °F
Feels Like 56.5 °F
N
0.0
Wind Variable Wind from NW
Gusts 1.6 mph

Today
High -- | Low -- °F
--% Chance of Precip.
Yesterday
High -- | Low -- °F
Precip. -- in
6:11 AM 7:26 PM
Waning Crescent, 0% visible
Pressure 30.09 in
Visibility 6.2 miles
Clouds Few 5000 ft
Dew Point 46 °F
Humidity 68%
Rainfall 0.00 in
Snow Depth Not available.
UV 0 out of 12
Pollen Not available.
Air Quality Not available.
Flu Activity Not available.
METAR YSCB 231730Z 20007KT 9999 FEW050 12/11 Q1019

More Conditions Fewer Conditions

Pressure 30.09 in
Visibility 6.2 miles
Clouds Few 5000 ft
Dew Point 46 °F
Humidity 68%
Rainfall 0.00 in
Snow Depth Not available.
UV 0 out of 12
Pollen Not available.
Air Quality Not available.
Flu Activity Not available.
METAR YSCB 231730Z 20007KT 9999 FEW050 12/11 Q1019

More Conditions Fewer Conditions

10-Day Weather Forecast

Almanac

Astronomy

Oct. 24, 2014 Rise Set
Actual Time 6:11 AM AEDT 7:26 PM AEDT
Civil Twilight 5:45 AM AEDT 7:52 PM AEDT
Nautical Twilight 5:14 AM AEDT 8:23 PM AEDT
Astronomical Twilight 4:41 AM AEDT 8:56 PM AEDT
Moon 6:16 AM AEDT (10/24) 7:44 PM AEDT (10/24)
Length of Visible Light 14h 07m
Length of Day
13h 14m
Tomorrow will be 2m 4s longer.
Waning Crescent, 0% of the Moon is Illuminated
Oct 23
Waning Crescent
Oct 23
New
Oct 30
First Quarter
Nov 6
Full
Nov 14
Last Quarter

Yesterday's Extremes

Country Highs Country Lows

Community

WunderPhotos

Upload Photos

1,764,322 photos uploaded!

WunderBlogs® & News

By Dr. Jeff Masters
Director of Meteorology, Weather Underground
By Kari Strenfel
Meteorologist, Weather Underground
By Christopher C. Burt
Weather Historian, Weather Underground
October 23, 2014
October 23, 2014
October 23, 2014

Nearby

Snow Depth

Not available.

Earthquake Activity

City Distance Mag. Time & Date
No recent earthquake activity has been reported nearby.
Minimum magnitude displayed is 2.5.

Coastal Water Temperatures

Place Temperature
No Stations Reporting

Nearby Weather Stations